Time;durP1;ratioP1;P1;durP2;ratioP2;P2;SDS_P1;SDS_P2;PMS_P1;PMS_P2;Temp;Humidity;BMP_temperature;BMP_pressure;BME280_temperature;BME280_humidity;BME280_pressure;Samples;Min_cycle;Max_cycle;Signal;HPM_P1;HPM_P2
2022/01/15 00:00:42;;;;;;;;;;;22.30;23.10;;;;;;5108503;27;19930;-51
2022/01/15 00:03:08;;;;;;;;;;;22.40;23.10;;;;;;5121254;27;20335;-49
2022/01/15 00:05:34;;;;;;;;;;;22.40;23.10;;;;;;5121189;27;20134;-48
2022/01/15 00:08:03;;;;;;;;;;;22.30;23.10;;;;;;5108728;27;20394;-46
2022/01/15 00:10:29;;;;;;;;;;;22.40;23.00;;;;;;5121592;27;20391;-47
2022/01/15 00:12:59;;;;;;;;;;;22.30;23.10;;;;;;5120036;27;19924;-52
2022/01/15 00:15:28;;;;;;;;;;;22.20;23.10;;;;;;5126203;27;20382;-46
2022/01/15 00:18:10;;;;;;;;;;;22.30;23.00;;;;;;5117718;27;19924;-48
2022/01/15 00:20:36;;;;;;;;;;;22.40;23.00;;;;;;5104650;27;20411;-55
2022/01/15 00:23:01;;;;;;;;;;;22.40;22.90;;;;;;5124782;27;19943;-46
2022/01/15 00:25:31;;;;;;;;;;;22.40;23.00;;;;;;5121384;27;20383;-46
2022/01/15 00:27:57;;;;;;;;;;;22.30;23.00;;;;;;5108816;28;20146;-46
2022/01/15 00:30:23;;;;;;;;;;;22.30;23.00;;;;;;5116745;27;19924;-48
2022/01/15 00:32:49;;;;;;;;;;;22.40;22.90;;;;;;5118904;27;19943;-49
2022/01/15 00:35:15;;;;;;;;;;;22.40;22.90;;;;;;5126550;27;19964;-50
2022/01/15 00:37:41;;;;;;;;;;;22.40;22.90;;;;;;5102654;28;20538;-47
2022/01/15 00:40:07;;;;;;;;;;;22.40;22.80;;;;;;5120796;28;19924;-48
2022/01/15 00:42:35;;;;;;;;;;;22.40;22.80;;;;;;5126534;28;19927;-49
2022/01/15 00:45:02;;;;;;;;;;;22.30;22.90;;;;;;5121377;28;19927;-46
2022/01/15 00:47:31;;;;;;;;;;;22.50;22.70;;;;;;5126599;28;19923;-45
2022/01/15 00:50:00;;;;;;;;;;;22.40;22.70;;;;;;5119057;28;19923;-47
2022/01/15 00:52:25;;;;;;;;;;;22.50;22.70;;;;;;5120374;28;19995;-46
2022/01/15 00:54:54;;;;;;;;;;;22.40;22.80;;;;;;5126228;28;20264;-46
2022/01/15 00:57:20;;;;;;;;;;;22.40;22.70;;;;;;5120562;28;19923;-48
2022/01/15 00:59:46;;;;;;;;;;;22.40;22.70;;;;;;5120463;28;20031;-48
2022/01/15 01:02:11;;;;;;;;;;;22.40;22.70;;;;;;5126386;28;20346;-47
2022/01/15 01:04:37;;;;;;;;;;;22.30;22.70;;;;;;5120827;28;19928;-47
2022/01/15 01:07:03;;;;;;;;;;;22.40;22.70;;;;;;5124515;27;19927;-52
2022/01/15 01:09:45;;;;;;;;;;;22.40;22.70;;;;;;5127105;27;19976;-46
2022/01/15 01:12:28;;;;;;;;;;;22.50;22.60;;;;;;5124708;27;19976;-45
2022/01/15 01:23:08;;;;;;;;;;;22.40;22.60;;;;;;5123283;27;19928;-47
2022/01/15 01:25:39;;;;;;;;;;;22.40;22.50;;;;;;5129843;27;20107;-46
2022/01/15 01:28:13;;;;;;;;;;;22.50;22.50;;;;;;5123089;27;19924;-46
2022/01/15 01:30:49;;;;;;;;;;;22.40;22.60;;;;;;5106016;27;20415;-47
2022/01/15 01:35:44;;;;;;;;;;;22.40;22.50;;;;;;5124145;27;19923;-45
2022/01/15 01:38:30;;;;;;;;;;;22.50;22.40;;;;;;5124430;27;20018;-45
2022/01/15 01:40:58;;;;;;;;;;;22.40;22.50;;;;;;5129932;27;19931;-45
2022/01/15 01:48:39;;;;;;;;;;;22.50;22.30;;;;;;5097107;27;20297;-45
2022/01/15 01:51:07;;;;;;;;;;;22.40;22.30;;;;;;5124079;27;19924;-45
2022/01/15 01:53:33;;;;;;;;;;;22.50;22.30;;;;;;5125096;27;19930;-55
2022/01/15 01:55:59;;;;;;;;;;;22.40;22.30;;;;;;5129118;27;19923;-46
2022/01/15 01:58:24;;;;;;;;;;;22.50;22.20;;;;;;5105638;27;19946;-45
2022/01/15 02:00:50;;;;;;;;;;;22.60;22.10;;;;;;5129588;27;20287;-45
2022/01/15 02:03:16;;;;;;;;;;;22.60;22.10;;;;;;5122575;27;20117;-47
2022/01/15 02:05:42;;;;;;;;;;;22.60;22.10;;;;;;5122742;27;19923;-45
2022/01/15 02:08:07;;;;;;;;;;;22.50;22.20;;;;;;5110792;27;19945;-44
2022/01/15 02:10:34;;;;;;;;;;;22.70;22.00;;;;;;5123505;27;20290;-46
2022/01/15 02:13:01;;;;;;;;;;;22.50;22.00;;;;;;5123391;27;19929;-46
2022/01/15 02:15:27;;;;;;;;;;;22.60;22.00;;;;;;5129116;27;20271;-44
2022/01/15 02:17:53;;;;;;;;;;;22.60;21.90;;;;;;5103164;27;20022;-44
2022/01/15 02:25:51;;;;;;;;;;;22.60;22.00;;;;;;5123254;27;19923;-43
2022/01/15 02:28:17;;;;;;;;;;;22.60;21.90;;;;;;5107980;27;20369;-55
2022/01/15 02:30:43;;;;;;;;;;;22.50;21.90;;;;;;5106885;27;19959;-46
2022/01/15 02:33:09;;;;;;;;;;;22.60;21.80;;;;;;5123393;27;20358;-46
2022/01/15 02:35:35;;;;;;;;;;;22.60;21.80;;;;;;5128699;27;19934;-45
2022/01/15 02:38:04;;;;;;;;;;;22.60;21.80;;;;;;5123148;27;20026;-45
2022/01/15 02:40:32;;;;;;;;;;;22.60;21.80;;;;;;5121766;27;20262;-44
2022/01/15 02:43:04;;;;;;;;;;;22.50;21.90;;;;;;5128148;27;19923;-44
2022/01/15 02:45:32;;;;;;;;;;;22.70;21.80;;;;;;5123207;27;19985;-45
2022/01/15 02:48:14;;;;;;;;;;;22.60;21.80;;;;;;5122721;27;19923;-44
2022/01/15 02:50:40;;;;;;;;;;;22.60;21.90;;;;;;5128036;27;19923;-45
2022/01/15 02:53:06;;;;;;;;;;;22.60;21.90;;;;;;5123019;27;20359;-45
2022/01/15 02:55:32;;;;;;;;;;;22.60;21.90;;;;;;5104044;27;19984;-45
2022/01/15 02:57:58;;;;;;;;;;;22.50;21.90;;;;;;5128029;27;20302;-46
2022/01/15 03:00:23;;;;;;;;;;;22.70;21.80;;;;;;5120998;27;19923;-49
2022/01/15 03:02:49;;;;;;;;;;;22.70;21.80;;;;;;5128068;27;20582;-45
2022/01/15 03:05:15;;;;;;;;;;;22.60;21.80;;;;;;5122706;27;19923;-44
2022/01/15 03:07:41;;;;;;;;;;;22.60;21.90;;;;;;5122477;27;19976;-44
2022/01/15 03:10:08;;;;;;;;;;;22.70;21.80;;;;;;5127813;27;20418;-45
2022/01/15 03:12:34;;;;;;;;;;;22.60;21.90;;;;;;5122405;27;20033;-44
2022/01/15 03:15:02;;;;;;;;;;;22.70;21.80;;;;;;5122403;27;20498;-44
2022/01/15 03:17:28;;;;;;;;;;;22.70;21.80;;;;;;5126378;27;20434;-46
2022/01/15 03:19:54;;;;;;;;;;;22.80;21.70;;;;;;5121587;27;19924;-45
2022/01/15 03:22:21;;;;;;;;;;;22.70;21.80;;;;;;5127674;27;19932;-45
2022/01/15 03:24:47;;;;;;;;;;;22.70;21.80;;;;;;5121868;27;19949;-45
2022/01/15 03:27:12;;;;;;;;;;;22.70;21.80;;;;;;5122074;27;19930;-43
2022/01/15 03:29:38;;;;;;;;;;;22.80;21.70;;;;;;5127384;27;19964;-47
2022/01/15 03:32:05;;;;;;;;;;;22.70;21.80;;;;;;5122050;27;19930;-46
2022/01/15 03:34:31;;;;;;;;;;;22.70;21.80;;;;;;5122001;27;20274;-47
2022/01/15 03:36:57;;;;;;;;;;;22.80;21.60;;;;;;5125713;27;20280;-47
2022/01/15 03:39:22;;;;;;;;;;;22.80;21.60;;;;;;5121898;27;20287;-47
2022/01/15 03:41:48;;;;;;;;;;;22.80;21.60;;;;;;5125781;27;19923;-54
2022/01/15 03:44:14;;;;;;;;;;;22.80;21.60;;;;;;5123516;27;20427;-49
2022/01/15 03:46:40;;;;;;;;;;;22.90;21.60;;;;;;5121636;27;19928;-47
2022/01/15 03:49:05;;;;;;;;;;;22.80;21.70;;;;;;5127474;27;19934;-47
2022/01/15 03:51:31;;;;;;;;;;;22.80;21.70;;;;;;5121903;27;20005;-47
2022/01/15 03:53:57;;;;;;;;;;;22.80;21.60;;;;;;5120987;27;19959;-51
2022/01/15 03:56:23;;;;;;;;;;;22.80;21.60;;;;;;5126055;27;19931;-48
2022/01/15 03:58:48;;;;;;;;;;;22.80;21.60;;;;;;5121465;27;19923;-47
2022/01/15 04:01:14;;;;;;;;;;;22.90;21.60;;;;;;5123549;27;19968;-56
2022/01/15 04:03:40;;;;;;;;;;;22.90;21.50;;;;;;5125289;27;19927;-48
2022/01/15 04:06:06;;;;;;;;;;;23.00;21.40;;;;;;5121567;27;20374;-48
2022/01/15 04:08:31;;;;;;;;;;;22.90;21.50;;;;;;5108623;27;19970;-51
2022/01/15 04:10:57;;;;;;;;;;;23.00;21.40;;;;;;5121403;27;20402;-51
2022/01/15 04:13:23;;;;;;;;;;;23.00;21.30;;;;;;5119728;27;19924;-49
2022/01/15 04:15:52;;;;;;;;;;;22.90;21.40;;;;;;5126726;27;19927;-48
2022/01/15 04:18:18;;;;;;;;;;;23.00;21.30;;;;;;5117979;27;20038;-49
2022/01/15 04:20:44;;;;;;;;;;;23.10;21.20;;;;;;5120863;27;19976;-48
2022/01/15 04:23:10;;;;;;;;;;;23.00;21.30;;;;;;5126620;27;19935;-48
2022/01/15 04:25:36;;;;;;;;;;;23.10;21.10;;;;;;5121299;27;19923;-51
2022/01/15 04:28:07;;;;;;;;;;;23.10;21.10;;;;;;5126716;27;19930;-49
2022/01/15 04:30:33;;;;;;;;;;;23.00;21.10;;;;;;5102659;27;20023;-48
2022/01/15 04:32:58;;;;;;;;;;;23.20;21.00;;;;;;5101146;27;19923;-50
2022/01/15 04:35:24;;;;;;;;;;;23.30;20.90;;;;;;5126478;27;19931;-45
2022/01/15 04:37:54;;;;;;;;;;;23.20;21.10;;;;;;5121180;27;19927;-46
2022/01/15 04:40:20;;;;;;;;;;;23.20;21.00;;;;;;5120650;27;20326;-53
2022/01/15 04:42:45;;;;;;;;;;;23.20;21.00;;;;;;5126123;28;19924;-50
2022/01/15 04:45:11;;;;;;;;;;;23.10;21.00;;;;;;5102919;28;19927;-51
2022/01/15 04:47:37;;;;;;;;;;;23.10;21.00;;;;;;5124849;28;19923;-59
2022/01/15 04:50:04;;;;;;;;;;;23.20;21.00;;;;;;5121717;28;20026;-55
2022/01/15 04:52:30;;;;;;;;;;;23.10;21.00;;;;;;5120253;28;19984;-50
2022/01/15 04:54:56;;;;;;;;;;;23.30;20.90;;;;;;5126255;28;20006;-51
2022/01/15 04:57:22;;;;;;;;;;;23.20;20.90;;;;;;5120748;28;19930;-52
2022/01/15 04:59:48;;;;;;;;;;;23.20;20.90;;;;;;5120485;28;19927;-48
2022/01/15 05:02:13;;;;;;;;;;;22.90;21.20;;;;;;5126333;28;19947;-48
2022/01/15 05:04:39;;;;;;;;;;;22.80;21.30;;;;;;5120770;28;19923;-48
2022/01/15 05:07:05;;;;;;;;;;;22.80;21.30;;;;;;5121530;28;19923;-56
2022/01/15 05:09:31;;;;;;;;;;;22.70;21.40;;;;;;5123739;28;19934;-51
2022/01/15 05:14:25;;;;;;;;;;;22.60;21.40;;;;;;5126211;28;19930;-47
2022/01/15 05:16:51;;;;;;;;;;;22.50;21.50;;;;;;5120589;28;20379;-51
2022/01/15 05:19:17;;;;;;;;;;;22.60;21.50;;;;;;5120346;28;19924;-47
2022/01/15 05:21:42;;;;;;;;;;;22.50;21.40;;;;;;5126227;28;19934;-46
2022/01/15 05:24:08;;;;;;;;;;;22.50;21.50;;;;;;5120747;28;20306;-49
2022/01/15 05:26:34;;;;;;;;;;;22.50;21.40;;;;;;5119857;28;19999;-49
2022/01/15 05:29:00;;;;;;;;;;;22.50;21.50;;;;;;5125064;28;19966;-47
2022/01/15 05:31:26;;;;;;;;;;;22.40;21.50;;;;;;5120737;28;20327;-47
2022/01/15 05:33:51;;;;;;;;;;;22.50;21.50;;;;;;5125915;28;19934;-49
2022/01/15 05:36:17;;;;;;;;;;;22.50;21.40;;;;;;5120254;28;20022;-48
2022/01/15 05:38:43;;;;;;;;;;;22.40;21.50;;;;;;5120250;28;20187;-47
2022/01/15 05:41:09;;;;;;;;;;;22.40;21.50;;;;;;5126159;28;19935;-46
2022/01/15 05:43:34;;;;;;;;;;;22.50;21.40;;;;;;5102000;28;19923;-45
2022/01/15 05:46:00;;;;;;;;;;;22.50;21.50;;;;;;5099478;28;20188;-46
2022/01/15 05:48:26;;;;;;;;;;;22.50;21.40;;;;;;5125717;28;20302;-46
2022/01/15 05:50:52;;;;;;;;;;;22.50;21.40;;;;;;5120209;28;19987;-46
2022/01/15 05:53:17;;;;;;;;;;;22.50;21.40;;;;;;5126407;27;19923;-46
2022/01/15 05:55:43;;;;;;;;;;;22.50;21.40;;;;;;5105505;27;19923;-46
2022/01/15 05:58:09;;;;;;;;;;;22.40;21.40;;;;;;5124156;27;21601;-48
2022/01/15 06:00:35;;;;;;;;;;;22.50;21.30;;;;;;5129420;27;19937;-45
2022/01/15 06:03:01;;;;;;;;;;;22.40;21.40;;;;;;5123806;27;20290;-49
2022/01/15 06:05:27;;;;;;;;;;;22.40;21.40;;;;;;5122260;27;19933;-45
2022/01/15 06:07:53;;;;;;;;;;;22.50;21.30;;;;;;5129186;27;20336;-47
2022/01/15 06:10:18;;;;;;;;;;;22.40;21.30;;;;;;5123709;27;19923;-45
2022/01/15 06:12:44;;;;;;;;;;;22.40;21.40;;;;;;5128351;27;20347;-53
2022/01/15 06:15:11;;;;;;;;;;;22.40;21.30;;;;;;5124724;27;20028;-45
2022/01/15 06:17:36;;;;;;;;;;;22.40;21.30;;;;;;5123797;27;19938;-45
2022/01/15 06:20:02;;;;;;;;;;;22.40;21.40;;;;;;5129208;27;19927;-46
2022/01/15 06:22:28;;;;;;;;;;;22.50;21.30;;;;;;5122392;27;19930;-47
2022/01/15 06:24:54;;;;;;;;;;;22.50;21.30;;;;;;5122772;27;19973;-46
2022/01/15 06:27:20;;;;;;;;;;;22.50;21.20;;;;;;5128786;27;19924;-44
2022/01/15 06:29:45;;;;;;;;;;;22.40;21.30;;;;;;5123133;27;19924;-46
2022/01/15 06:32:12;;;;;;;;;;;22.40;21.30;;;;;;5125464;27;19938;-53
2022/01/15 06:34:38;;;;;;;;;;;22.50;21.10;;;;;;5127052;27;19967;-47
2022/01/15 06:37:04;;;;;;;;;;;22.30;21.30;;;;;;5123456;27;20290;-47
2022/01/15 06:39:33;;;;;;;;;;;22.50;21.20;;;;;;5128548;27;19949;-46
2022/01/15 06:41:59;;;;;;;;;;;22.40;21.20;;;;;;5121273;27;19930;-45
2022/01/15 06:44:25;;;;;;;;;;;22.40;21.20;;;;;;5123105;27;19927;-49
2022/01/15 06:46:51;;;;;;;;;;;22.40;21.20;;;;;;5128542;27;20026;-45
2022/01/15 06:49:17;;;;;;;;;;;22.40;21.10;;;;;;5122913;27;19931;-46
2022/01/15 06:51:42;;;;;;;;;;;22.30;21.20;;;;;;5122809;27;19924;-49
2022/01/15 06:54:08;;;;;;;;;;;22.50;21.00;;;;;;5109990;27;20374;-45
2022/01/15 06:56:34;;;;;;;;;;;22.40;21.10;;;;;;5123119;27;20306;-44
2022/01/15 06:59:00;;;;;;;;;;;22.30;21.20;;;;;;5127737;27;19950;-45
2022/01/15 07:01:26;;;;;;;;;;;22.30;21.20;;;;;;5102879;27;19938;-44
2022/01/15 07:03:51;;;;;;;;;;;22.40;21.10;;;;;;5122044;27;19927;-46
2022/01/15 07:06:17;;;;;;;;;;;22.40;21.10;;;;;;5127881;27;19924;-46
2022/01/15 07:08:43;;;;;;;;;;;22.30;21.20;;;;;;5122407;27;20325;-45
2022/01/15 07:11:09;;;;;;;;;;;22.40;21.10;;;;;;5122431;27;20309;-44
2022/01/15 07:13:34;;;;;;;;;;;22.40;21.10;;;;;;5128066;27;19924;-44
2022/01/15 07:16:00;;;;;;;;;;;22.50;21.00;;;;;;5122533;27;19924;-46
2022/01/15 07:18:26;;;;;;;;;;;22.40;21.00;;;;;;5126244;27;20666;-46
2022/01/15 07:20:52;;;;;;;;;;;22.40;21.00;;;;;;5122071;27;19972;-44
2022/01/15 07:23:18;;;;;;;;;;;22.40;21.00;;;;;;5122339;27;19923;-45
2022/01/15 07:25:43;;;;;;;;;;;22.50;21.00;;;;;;5127505;27;19923;-45
2022/01/15 07:28:09;;;;;;;;;;;22.40;21.00;;;;;;5121962;27;19923;-47
2022/01/15 07:30:35;;;;;;;;;;;22.50;20.90;;;;;;5122349;27;19962;-46
2022/01/15 07:33:01;;;;;;;;;;;22.50;20.90;;;;;;5127651;27;20014;-45
2022/01/15 07:35:27;;;;;;;;;;;22.60;20.90;;;;;;5121990;27;20010;-46
2022/01/15 07:37:53;;;;;;;;;;;22.60;20.80;;;;;;5125235;27;20410;-54
2022/01/15 07:40:18;;;;;;;;;;;22.50;20.90;;;;;;5122452;27;19976;-45
2022/01/15 07:42:44;;;;;;;;;;;22.60;20.80;;;;;;5122026;27;19931;-49
2022/01/15 07:45:11;;;;;;;;;;;22.50;20.90;;;;;;5127349;27;20405;-43
2022/01/15 07:47:37;;;;;;;;;;;22.60;20.80;;;;;;5121848;27;19927;-47
2022/01/15 07:50:03;;;;;;;;;;;22.60;20.80;;;;;;5121912;27;20018;-45
2022/01/15 07:52:29;;;;;;;;;;;22.60;20.80;;;;;;5127268;27;19923;-46
2022/01/15 07:54:58;;;;;;;;;;;22.50;20.90;;;;;;5120516;27;19929;-52
2022/01/15 07:57:24;;;;;;;;;;;22.50;20.90;;;;;;5101888;27;19931;-54
2022/01/15 07:59:50;;;;;;;;;;;22.60;20.80;;;;;;5126478;27;19930;-46
2022/01/15 08:02:16;;;;;;;;;;;22.70;20.70;;;;;;5121483;27;20350;-44
2022/01/15 08:04:42;;;;;;;;;;;22.60;20.70;;;;;;5126928;27;19924;-47
2022/01/15 08:07:09;;;;;;;;;;;22.70;20.60;;;;;;5121524;27;20358;-46
2022/01/15 08:09:35;;;;;;;;;;;22.70;20.60;;;;;;5121391;27;19927;-45
2022/01/15 08:12:01;;;;;;;;;;;22.60;20.60;;;;;;5126818;27;19927;-46
2022/01/15 08:14:27;;;;;;;;;;;22.70;20.70;;;;;;5119752;27;20076;-46
2022/01/15 08:16:53;;;;;;;;;;;22.70;20.60;;;;;;5102331;27;19923;-47
2022/01/15 08:19:18;;;;;;;;;;;22.60;20.70;;;;;;5126629;27;19930;-48
2022/01/15 08:21:44;;;;;;;;;;;22.70;20.60;;;;;;5121132;27;20367;-48
2022/01/15 08:24:10;;;;;;;;;;;22.60;20.70;;;;;;5126633;27;20371;-46
2022/01/15 08:26:36;;;;;;;;;;;22.80;20.50;;;;;;5121468;27;19923;-46
2022/01/15 08:29:02;;;;;;;;;;;22.70;20.60;;;;;;5121199;27;19930;-47
2022/01/15 08:31:28;;;;;;;;;;;22.70;20.50;;;;;;5126472;27;19940;-51
2022/01/15 08:33:54;;;;;;;;;;;22.80;20.50;;;;;;5119487;27;19969;-46
2022/01/15 08:36:20;;;;;;;;;;;22.80;20.60;;;;;;5120908;27;19931;-48
2022/01/15 08:38:46;;;;;;;;;;;22.80;20.60;;;;;;5126354;27;19924;-48
2022/01/15 08:41:14;;;;;;;;;;;22.80;20.60;;;;;;5120871;28;19927;-49
2022/01/15 08:43:40;;;;;;;;;;;22.90;20.50;;;;;;5126525;28;19923;-54
2022/01/15 08:46:06;;;;;;;;;;;22.90;20.50;;;;;;5121575;28;19932;-48
2022/01/15 08:48:32;;;;;;;;;;;22.80;20.60;;;;;;5121099;28;19932;-47
2022/01/15 08:50:57;;;;;;;;;;;22.80;20.50;;;;;;5125039;28;19930;-47
2022/01/15 08:53:23;;;;;;;;;;;22.80;20.60;;;;;;5120381;28;19976;-47
2022/01/15 08:55:49;;;;;;;;;;;22.90;20.50;;;;;;5120916;28;19927;-49
2022/01/15 08:58:15;;;;;;;;;;;22.80;20.60;;;;;;5126050;28;19979;-46
2022/01/15 09:00:41;;;;;;;;;;;22.90;20.60;;;;;;5120366;28;19931;-48
2022/01/15 09:03:07;;;;;;;;;;;22.90;20.60;;;;;;5124140;28;20046;-55
2022/01/15 09:05:36;;;;;;;;;;;22.90;20.60;;;;;;5123552;28;19929;-47
2022/01/15 09:08:02;;;;;;;;;;;22.90;20.50;;;;;;5120707;28;20234;-46
2022/01/15 09:10:28;;;;;;;;;;;22.90;20.50;;;;;;5106100;28;20328;-48
2022/01/15 09:12:53;;;;;;;;;;;22.90;20.60;;;;;;5120556;28;20029;-49
2022/01/15 09:15:19;;;;;;;;;;;22.90;20.60;;;;;;5120643;28;19970;-48
2022/01/15 09:17:45;;;;;;;;;;;22.90;20.60;;;;;;5125979;28;19938;-47
2022/01/15 09:20:11;;;;;;;;;;;22.90;20.60;;;;;;5120518;28;20010;-47
2022/01/15 09:22:37;;;;;;;;;;;23.00;20.60;;;;;;5120767;28;20383;-48
2022/01/15 09:25:03;;;;;;;;;;;23.00;20.50;;;;;;5126135;28;19932;-49
2022/01/15 09:30:13;;;;;;;;;;;23.00;20.60;;;;;;5126846;27;19930;-55
2022/01/15 09:32:41;;;;;;;;;;;23.00;20.50;;;;;;5127579;27;19928;-48
2022/01/15 09:35:07;;;;;;;;;;;23.00;20.50;;;;;;5123970;27;19924;-50
2022/01/15 09:37:33;;;;;;;;;;;23.10;20.50;;;;;;5129645;27;20359;-48
2022/01/15 09:39:59;;;;;;;;;;;23.20;20.40;;;;;;5124122;27;19958;-50
2022/01/15 09:42:24;;;;;;;;;;;23.30;20.40;;;;;;5124337;27;20365;-49
2022/01/15 09:44:51;;;;;;;;;;;23.10;20.50;;;;;;5129768;27;19931;-47
2022/01/15 09:47:17;;;;;;;;;;;23.20;20.50;;;;;;5122340;27;19930;-49
2022/01/15 09:49:43;;;;;;;;;;;23.20;20.50;;;;;;5124102;27;20349;-49
2022/01/15 09:52:09;;;;;;;;;;;23.30;20.40;;;;;;5129459;27;20172;-46
2022/01/15 09:54:35;;;;;;;;;;;23.20;20.40;;;;;;5105573;27;19934;-46
2022/01/15 09:57:00;;;;;;;;;;;23.20;20.40;;;;;;5129318;27;19924;-48
2022/01/15 09:59:26;;;;;;;;;;;23.20;20.50;;;;;;5123913;27;19923;-50
2022/01/15 10:01:52;;;;;;;;;;;23.20;20.50;;;;;;5123963;27;20374;-48
2022/01/15 10:04:18;;;;;;;;;;;23.30;20.40;;;;;;5128977;27;19930;-51
2022/01/15 10:07:02;;;;;;;;;;;23.20;20.50;;;;;;5122322;27;19930;-51
2022/01/15 10:09:28;;;;;;;;;;;23.30;20.50;;;;;;5123779;27;19927;-48
2022/01/15 10:11:57;;;;;;;;;;;23.30;20.40;;;;;;5128991;27;19928;-50
2022/01/15 10:14:35;;;;;;;;;;;23.30;20.40;;;;;;5123491;27;19988;-50
2022/01/15 10:17:02;;;;;;;;;;;23.30;20.40;;;;;;5123755;27;19953;-49
2022/01/15 10:19:30;;;;;;;;;;;23.30;20.50;;;;;;5129178;27;19930;-48
2022/01/15 10:22:08;;;;;;;;;;;23.30;20.50;;;;;;5123514;27;19929;-44
2022/01/15 10:24:34;;;;;;;;;;;23.30;20.60;;;;;;5121387;27;20018;-43
2022/01/15 10:27:19;;;;;;;;;;;23.30;20.50;;;;;;5128820;27;20019;-46
2022/01/15 10:29:48;;;;;;;;;;;23.30;20.60;;;;;;5123274;27;20295;-48
2022/01/15 10:32:13;;;;;;;;;;;23.30;20.60;;;;;;5123994;27;19927;-58
2022/01/15 10:34:41;;;;;;;;;;;23.30;20.60;;;;;;5128051;27;19935;-49
2022/01/15 10:37:08;;;;;;;;;;;23.30;20.60;;;;;;5103221;27;19923;-45
2022/01/15 10:39:34;;;;;;;;;;;23.30;20.60;;;;;;5127818;27;19927;-48
2022/01/15 10:41:59;;;;;;;;;;;23.20;20.70;;;;;;5122031;27;19965;-47
2022/01/15 10:44:29;;;;;;;;;;;23.30;20.60;;;;;;5122125;27;19923;-47
2022/01/15 10:47:07;;;;;;;;;;;23.30;20.60;;;;;;5128595;27;20305;-48
2022/01/15 10:49:33;;;;;;;;;;;23.30;20.60;;;;;;5122903;27;19962;-46
2022/01/15 10:52:09;;;;;;;;;;;23.30;20.70;;;;;;5122934;27;19937;-48
2022/01/15 10:54:35;;;;;;;;;;;23.30;20.60;;;;;;5128516;27;20299;-45
2022/01/15 10:57:05;;;;;;;;;;;23.40;20.70;;;;;;5103570;27;19923;-44
2022/01/15 10:59:31;;;;;;;;;;;23.30;20.70;;;;;;5122680;27;20125;-45
2022/01/15 11:02:18;;;;;;;;;;;23.30;20.80;;;;;;5126554;27;19923;-45
2022/01/15 11:04:43;;;;;;;;;;;23.20;20.90;;;;;;5122661;27;19941;-47
2022/01/15 11:07:10;;;;;;;;;;;23.30;20.70;;;;;;5122611;27;19923;-45
2022/01/15 11:09:38;;;;;;;;;;;23.30;20.70;;;;;;5127570;27;20014;-49
2022/01/15 11:12:05;;;;;;;;;;;23.30;20.80;;;;;;5122502;27;20024;-47
2022/01/15 11:14:31;;;;;;;;;;;23.30;20.80;;;;;;5128263;27;19923;-50
2022/01/15 11:16:59;;;;;;;;;;;23.20;21.00;;;;;;5122434;27;19927;-51
2022/01/15 11:19:25;;;;;;;;;;;23.00;21.20;;;;;;5120972;27;19934;-53
2022/01/15 11:21:50;;;;;;;;;;;22.90;21.20;;;;;;5108244;27;20303;-49
2022/01/15 11:24:17;;;;;;;;;;;22.80;21.40;;;;;;5103877;27;19972;-50
2022/01/15 11:26:43;;;;;;;;;;;22.90;21.30;;;;;;5103833;27;20279;-49
2022/01/15 11:29:09;;;;;;;;;;;22.80;21.40;;;;;;5109064;27;20286;-50
2022/01/15 11:31:35;;;;;;;;;;;22.80;21.50;;;;;;5122259;27;19923;-47
2022/01/15 11:34:01;;;;;;;;;;;22.70;21.60;;;;;;5127166;27;19927;-57
2022/01/15 11:36:33;;;;;;;;;;;22.70;21.60;;;;;;5105028;27;20382;-50
2022/01/15 11:39:00;;;;;;;;;;;22.70;21.70;;;;;;5120271;27;19923;-47
2022/01/15 11:41:26;;;;;;;;;;;22.70;21.60;;;;;;5127103;27;19961;-51
2022/01/15 11:44:01;;;;;;;;;;;22.70;21.70;;;;;;5121741;27;19961;-48
2022/01/15 11:46:33;;;;;;;;;;;22.70;21.70;;;;;;5103204;27;19928;-48
2022/01/15 11:49:18;;;;;;;;;;;22.70;21.70;;;;;;5127131;27;19927;-50
2022/01/15 11:51:44;;;;;;;;;;;22.70;21.70;;;;;;5121923;27;20382;-48
2022/01/15 11:54:10;;;;;;;;;;;22.70;21.80;;;;;;5121917;27;19929;-47
2022/01/15 11:56:36;;;;;;;;;;;22.60;21.90;;;;;;5125650;27;19929;-48
2022/01/15 11:59:22;;;;;;;;;;;22.70;21.80;;;;;;5121376;27;19941;-49
2022/01/15 12:01:48;;;;;;;;;;;22.70;21.80;;;;;;5103775;27;19973;-47
2022/01/15 12:04:24;;;;;;;;;;;22.70;21.90;;;;;;5127114;27;19923;-48
2022/01/15 12:07:02;;;;;;;;;;;22.70;21.80;;;;;;5121376;27;19927;-48
2022/01/15 12:09:47;;;;;;;;;;;22.70;21.80;;;;;;5121575;27;19939;-48
2022/01/15 12:12:19;;;;;;;;;;;22.80;21.80;;;;;;5126856;27;19927;-46
2022/01/15 12:15:00;;;;;;;;;;;22.60;22.00;;;;;;5120176;27;20426;-48
2022/01/15 12:17:32;;;;;;;;;;;22.80;21.80;;;;;;5120606;27;19938;-46
2022/01/15 12:19:58;;;;;;;;;;;22.70;21.90;;;;;;5126667;27;19930;-46
2022/01/15 12:22:34;;;;;;;;;;;22.70;21.90;;;;;;5120897;27;20382;-48
2022/01/15 12:25:01;;;;;;;;;;;22.70;22.00;;;;;;5102681;27;19927;-46
2022/01/15 12:27:27;;;;;;;;;;;22.70;22.00;;;;;;5126807;27;19945;-47
2022/01/15 12:29:56;;;;;;;;;;;22.70;22.00;;;;;;5121235;27;19930;-48
2022/01/15 12:32:28;;;;;;;;;;;22.70;22.00;;;;;;5120945;27;19999;-47
2022/01/15 12:34:54;;;;;;;;;;;22.70;22.00;;;;;;5124986;27;20300;-47
2022/01/15 12:37:19;;;;;;;;;;;22.70;22.00;;;;;;5120916;27;20382;-46
2022/01/15 12:39:45;;;;;;;;;;;22.60;22.20;;;;;;5126601;27;19968;-47
2022/01/15 12:42:12;;;;;;;;;;;22.70;22.10;;;;;;5120940;28;20390;-47
2022/01/15 12:44:45;;;;;;;;;;;22.60;22.10;;;;;;5120996;28;19927;-47
2022/01/15 12:47:11;;;;;;;;;;;22.70;22.20;;;;;;5126710;28;20006;-50
2022/01/15 12:49:41;;;;;;;;;;;22.70;22.10;;;;;;5121066;28;19923;-47
2022/01/15 12:52:07;;;;;;;;;;;22.80;22.00;;;;;;5119635;28;20349;-48
2022/01/15 12:54:33;;;;;;;;;;;22.80;22.10;;;;;;5125713;28;19957;-49
2022/01/15 12:56:59;;;;;;;;;;;22.80;22.10;;;;;;5120852;28;19935;-48
2022/01/15 12:59:27;;;;;;;;;;;22.80;22.10;;;;;;5120517;28;19923;-46
2022/01/15 13:01:53;;;;;;;;;;;22.80;22.10;;;;;;5126417;27;19924;-46
2022/01/15 13:04:19;;;;;;;;;;;22.80;22.10;;;;;;5124965;27;19934;-49
2022/01/15 13:06:49;;;;;;;;;;;22.80;22.20;;;;;;5130735;27;19932;-48
2022/01/15 13:09:16;;;;;;;;;;;22.80;22.20;;;;;;5124842;27;19937;-47
2022/01/15 13:11:48;;;;;;;;;;;22.80;22.20;;;;;;5123079;27;19933;-47
2022/01/15 13:14:14;;;;;;;;;;;22.80;22.30;;;;;;5130292;27;20438;-47
2022/01/15 13:16:40;;;;;;;;;;;22.80;22.30;;;;;;5106433;27;20010;-47
2022/01/15 13:19:07;;;;;;;;;;;22.80;22.30;;;;;;5124757;27;19927;-47
2022/01/15 13:21:33;;;;;;;;;;;22.80;22.30;;;;;;5129867;27;19927;-49
2022/01/15 13:24:02;;;;;;;;;;;22.80;22.30;;;;;;5124819;27;20370;-45
2022/01/15 13:26:31;;;;;;;;;;;22.80;22.20;;;;;;5124785;27;19971;-51
2022/01/15 13:28:58;;;;;;;;;;;22.90;22.20;;;;;;5128954;27;19923;-46
2022/01/15 13:31:28;;;;;;;;;;;22.90;22.30;;;;;;5123901;27;20122;-46
2022/01/15 13:33:53;;;;;;;;;;;22.80;22.30;;;;;;5109892;27;20907;-46
2022/01/15 13:36:19;;;;;;;;;;;22.70;22.40;;;;;;5124360;27;20278;-47
2022/01/15 13:38:46;;;;;;;;;;;22.80;22.40;;;;;;5124369;27;19924;-46
2022/01/15 13:41:31;;;;;;;;;;;22.80;22.40;;;;;;5111620;27;19927;-47
2022/01/15 13:43:59;;;;;;;;;;;23.00;22.20;;;;;;5124361;27;19949;-45
2022/01/15 13:46:29;;;;;;;;;;;22.80;22.40;;;;;;5105738;27;19927;-46
2022/01/15 13:48:58;;;;;;;;;;;22.80;22.40;;;;;;5128078;27;19923;-47
2022/01/15 13:54:09;;;;;;;;;;;22.90;22.40;;;;;;5124210;27;20479;-46
2022/01/15 13:56:39;;;;;;;;;;;23.00;22.30;;;;;;5111008;27;20556;-47
2022/01/15 13:59:05;;;;;;;;;;;22.90;22.40;;;;;;5105000;27;20360;-49
2022/01/15 14:01:32;;;;;;;;;;;22.90;22.40;;;;;;5124140;27;20527;-47
2022/01/15 14:04:19;;;;;;;;;;;23.00;22.40;;;;;;5129546;27;19927;-47
2022/01/15 14:06:44;;;;;;;;;;;23.00;22.40;;;;;;5122045;27;19923;-48
2022/01/15 14:09:15;;;;;;;;;;;23.00;22.40;;;;;;5123804;27;20144;-48
2022/01/15 14:11:59;;;;;;;;;;;23.00;22.50;;;;;;5129256;27;19927;-46
2022/01/15 14:14:26;;;;;;;;;;;23.00;22.50;;;;;;5122255;27;19948;-45
2022/01/15 14:16:52;;;;;;;;;;;22.90;22.60;;;;;;5123511;27;19981;-48
2022/01/15 14:19:37;;;;;;;;;;;23.00;22.50;;;;;;5129368;27;19937;-48
2022/01/15 14:22:21;;;;;;;;;;;23.00;22.40;;;;;;5121071;27;19927;-46
2022/01/15 14:24:47;;;;;;;;;;;23.10;22.50;;;;;;5102620;27;20168;-47
2022/01/15 14:27:17;;;;;;;;;;;23.00;22.60;;;;;;5128557;27;19929;-45
2022/01/15 14:29:43;;;;;;;;;;;23.00;22.60;;;;;;5123356;27;19924;-46
2022/01/15 14:32:09;;;;;;;;;;;23.00;22.60;;;;;;5107634;27;19938;-54
2022/01/15 14:34:35;;;;;;;;;;;23.00;22.60;;;;;;5126124;27;20496;-46
2022/01/15 14:37:00;;;;;;;;;;;23.10;22.60;;;;;;5123446;27;19923;-45
2022/01/15 14:39:26;;;;;;;;;;;23.00;22.80;;;;;;5128678;27;19924;-46
2022/01/15 14:41:52;;;;;;;;;;;23.00;22.70;;;;;;5123175;27;19931;-48
2022/01/15 14:44:18;;;;;;;;;;;23.10;22.70;;;;;;5121537;27;19934;-48
2022/01/15 14:46:43;;;;;;;;;;;22.90;22.80;;;;;;5128643;27;19927;-45